sensor_id;sensor_type;location;lat;lon;timestamp;temperature;humidity
13686;DHT22;6915;48.296;8.874;2023-05-16T00:01:24;8.90;99.90
13686;DHT22;6915;48.296;8.874;2023-05-16T00:03:54;9.00;99.90
13686;DHT22;6915;48.296;8.874;2023-05-16T00:06:23;9.00;99.90
13686;DHT22;6915;48.296;8.874;2023-05-16T00:08:54;9.00;99.90
13686;DHT22;6915;48.296;8.874;2023-05-16T00:11:24;9.10;99.90
13686;DHT22;6915;48.296;8.874;2023-05-16T00:13:53;9.00;99.90
13686;DHT22;6915;48.296;8.874;2023-05-16T00:16:22;9.10;99.90
13686;DHT22;6915;48.296;8.874;2023-05-16T00:18:52;9.00;99.90
13686;DHT22;6915;48.296;8.874;2023-05-16T00:21:22;9.20;99.90
13686;DHT22;6915;48.296;8.874;2023-05-16T00:23:51;9.10;99.90
13686;DHT22;6915;48.296;8.874;2023-05-16T00:26:21;9.10;99.90
13686;DHT22;6915;48.296;8.874;2023-05-16T00:28:53;9.10;99.90
13686;DHT22;6915;48.296;8.874;2023-05-16T00:31:24;9.10;99.90
13686;DHT22;6915;48.296;8.874;2023-05-16T00:33:55;9.20;99.90
13686;DHT22;6915;48.296;8.874;2023-05-16T00:36:25;9.20;99.90
13686;DHT22;6915;48.296;8.874;2023-05-16T00:38:58;9.20;99.90
13686;DHT22;6915;48.296;8.874;2023-05-16T00:41:27;9.20;99.90
13686;DHT22;6915;48.296;8.874;2023-05-16T00:43:56;9.20;99.90
13686;DHT22;6915;48.296;8.874;2023-05-16T00:46:25;9.20;99.90
13686;DHT22;6915;48.296;8.874;2023-05-16T00:48:54;9.20;99.90
13686;DHT22;6915;48.296;8.874;2023-05-16T00:51:25;9.20;99.90
13686;DHT22;6915;48.296;8.874;2023-05-16T00:53:56;9.20;99.90
13686;DHT22;6915;48.296;8.874;2023-05-16T00:56:25;9.20;99.90
13686;DHT22;6915;48.296;8.874;2023-05-16T00:58:54;9.00;99.90
13686;DHT22;6915;48.296;8.874;2023-05-16T01:01:25;9.00;99.90
13686;DHT22;6915;48.296;8.874;2023-05-16T01:03:55;8.90;99.90
13686;DHT22;6915;48.296;8.874;2023-05-16T01:06:25;8.90;99.90
13686;DHT22;6915;48.296;8.874;2023-05-16T01:08:54;9.00;99.90
13686;DHT22;6915;48.296;8.874;2023-05-16T01:11:28;9.00;99.90
13686;DHT22;6915;48.296;8.874;2023-05-16T01:14:05;9.00;99.90
13686;DHT22;6915;48.296;8.874;2023-05-16T01:16:45;9.00;99.90
13686;DHT22;6915;48.296;8.874;2023-05-16T01:19:25;9.10;99.90
13686;DHT22;6915;48.296;8.874;2023-05-16T01:22:05;9.00;99.90
13686;DHT22;6915;48.296;8.874;2023-05-16T01:24:55;9.00;99.90
13686;DHT22;6915;48.296;8.874;2023-05-16T01:27:28;9.00;99.90
13686;DHT22;6915;48.296;8.874;2023-05-16T01:29:58;9.00;99.90
13686;DHT22;6915;48.296;8.874;2023-05-16T01:32:27;9.00;99.90
13686;DHT22;6915;48.296;8.874;2023-05-16T01:34:56;8.90;99.90
13686;DHT22;6915;48.296;8.874;2023-05-16T01:37:29;9.00;99.90
13686;DHT22;6915;48.296;8.874;2023-05-16T01:40:06;9.10;99.90
13686;DHT22;6915;48.296;8.874;2023-05-16T01:42:41;9.10;99.90
13686;DHT22;6915;48.296;8.874;2023-05-16T01:45:13;9.10;99.90
13686;DHT22;6915;48.296;8.874;2023-05-16T01:47:49;9.20;99.90
13686;DHT22;6915;48.296;8.874;2023-05-16T01:50:21;9.20;99.90
13686;DHT22;6915;48.296;8.874;2023-05-16T01:52:58;9.10;99.90
13686;DHT22;6915;48.296;8.874;2023-05-16T01:55:38;9.10;99.90
13686;DHT22;6915;48.296;8.874;2023-05-16T01:58:12;9.00;99.90
13686;DHT22;6915;48.296;8.874;2023-05-16T02:00:43;9.10;99.90
13686;DHT22;6915;48.296;8.874;2023-05-16T02:03:13;9.10;99.90
13686;DHT22;6915;48.296;8.874;2023-05-16T02:05:42;9.10;99.90
13686;DHT22;6915;48.296;8.874;2023-05-16T02:08:11;9.10;99.90
13686;DHT22;6915;48.296;8.874;2023-05-16T02:10:40;9.20;99.90
13686;DHT22;6915;48.296;8.874;2023-05-16T02:13:10;9.10;99.90
13686;DHT22;6915;48.296;8.874;2023-05-16T02:15:41;9.10;99.90
13686;DHT22;6915;48.296;8.874;2023-05-16T02:18:09;9.10;99.90
13686;DHT22;6915;48.296;8.874;2023-05-16T02:20:38;9.10;99.90
13686;DHT22;6915;48.296;8.874;2023-05-16T02:23:07;9.30;99.90
13686;DHT22;6915;48.296;8.874;2023-05-16T02:25:35;9.20;99.90
13686;DHT22;6915;48.296;8.874;2023-05-16T02:28:04;9.20;99.90
13686;DHT22;6915;48.296;8.874;2023-05-16T02:30:34;9.20;99.90
13686;DHT22;6915;48.296;8.874;2023-05-16T02:33:03;9.40;99.90
13686;DHT22;6915;48.296;8.874;2023-05-16T02:35:32;9.20;99.90
13686;DHT22;6915;48.296;8.874;2023-05-16T02:38:04;9.40;99.90
13686;DHT22;6915;48.296;8.874;2023-05-16T02:40:32;9.30;99.90
13686;DHT22;6915;48.296;8.874;2023-05-16T02:43:01;9.30;99.90
13686;DHT22;6915;48.296;8.874;2023-05-16T02:45:29;9.40;99.90
13686;DHT22;6915;48.296;8.874;2023-05-16T02:48:00;9.40;99.90
13686;DHT22;6915;48.296;8.874;2023-05-16T02:50:28;9.40;99.90
13686;DHT22;6915;48.296;8.874;2023-05-16T02:52:57;9.30;99.90
13686;DHT22;6915;48.296;8.874;2023-05-16T02:55:28;9.40;99.90
13686;DHT22;6915;48.296;8.874;2023-05-16T02:57:57;9.40;99.90
13686;DHT22;6915;48.296;8.874;2023-05-16T03:00:26;9.40;99.90
13686;DHT22;6915;48.296;8.874;2023-05-16T03:02:54;9.40;99.90
13686;DHT22;6915;48.296;8.874;2023-05-16T03:05:25;9.40;99.90
13686;DHT22;6915;48.296;8.874;2023-05-16T03:07:54;9.30;99.90
13686;DHT22;6915;48.296;8.874;2023-05-16T03:10:22;9.40;99.90
13686;DHT22;6915;48.296;8.874;2023-05-16T03:12:51;9.40;99.90
13686;DHT22;6915;48.296;8.874;2023-05-16T03:15:20;9.40;99.90
13686;DHT22;6915;48.296;8.874;2023-05-16T03:17:48;9.40;99.90
13686;DHT22;6915;48.296;8.874;2023-05-16T03:20:17;9.40;99.90
13686;DHT22;6915;48.296;8.874;2023-05-16T03:22:47;9.40;99.90
13686;DHT22;6915;48.296;8.874;2023-05-16T03:25:15;9.30;99.90
13686;DHT22;6915;48.296;8.874;2023-05-16T03:27:44;9.40;99.90
13686;DHT22;6915;48.296;8.874;2023-05-16T03:30:13;9.40;99.90
13686;DHT22;6915;48.296;8.874;2023-05-16T03:32:43;9.40;99.90
13686;DHT22;6915;48.296;8.874;2023-05-16T03:35:12;9.50;99.90
13686;DHT22;6915;48.296;8.874;2023-05-16T03:37:41;9.40;99.90
13686;DHT22;6915;48.296;8.874;2023-05-16T03:40:12;9.50;99.90
13686;DHT22;6915;48.296;8.874;2023-05-16T03:42:40;9.50;99.90
13686;DHT22;6915;48.296;8.874;2023-05-16T03:45:10;9.50;99.90
13686;DHT22;6915;48.296;8.874;2023-05-16T03:47:38;9.60;99.90
13686;DHT22;6915;48.296;8.874;2023-05-16T03:50:09;9.60;99.90
13686;DHT22;6915;48.296;8.874;2023-05-16T03:52:38;9.60;99.90
13686;DHT22;6915;48.296;8.874;2023-05-16T03:55:07;9.60;99.90
13686;DHT22;6915;48.296;8.874;2023-05-16T03:57:38;9.60;99.90
13686;DHT22;6915;48.296;8.874;2023-05-16T04:00:07;9.60;99.90
13686;DHT22;6915;48.296;8.874;2023-05-16T04:02:37;9.60;99.90
13686;DHT22;6915;48.296;8.874;2023-05-16T04:05:10;9.60;99.90
13686;DHT22;6915;48.296;8.874;2023-05-16T04:07:40;9.60;99.90
13686;DHT22;6915;48.296;8.874;2023-05-16T04:13:58;9.70;99.90
13686;DHT22;6915;48.296;8.874;2023-05-16T04:16:42;9.70;99.90
13686;DHT22;6915;48.296;8.874;2023-05-16T04:26:08;9.70;99.90
13686;DHT22;6915;48.296;8.874;2023-05-16T04:32:49;9.70;99.90
13686;DHT22;6915;48.296;8.874;2023-05-16T04:35:43;9.70;99.90
13686;DHT22;6915;48.296;8.874;2023-05-16T04:38:44;9.70;99.90
13686;DHT22;6915;48.296;8.874;2023-05-16T04:41:56;9.80;99.90
13686;DHT22;6915;48.296;8.874;2023-05-16T04:44:33;9.70;99.90
13686;DHT22;6915;48.296;8.874;2023-05-16T04:47:02;9.80;99.90
13686;DHT22;6915;48.296;8.874;2023-05-16T04:49:32;9.90;99.90
13686;DHT22;6915;48.296;8.874;2023-05-16T04:52:01;9.80;99.90
13686;DHT22;6915;48.296;8.874;2023-05-16T04:54:29;9.80;99.90
13686;DHT22;6915;48.296;8.874;2023-05-16T04:56:58;9.90;99.90
13686;DHT22;6915;48.296;8.874;2023-05-16T04:59:27;9.90;99.90
13686;DHT22;6915;48.296;8.874;2023-05-16T05:01:56;9.90;99.90
13686;DHT22;6915;48.296;8.874;2023-05-16T05:04:25;10.00;99.90
13686;DHT22;6915;48.296;8.874;2023-05-16T05:06:55;9.90;99.90
13686;DHT22;6915;48.296;8.874;2023-05-16T05:09:24;9.90;99.90
13686;DHT22;6915;48.296;8.874;2023-05-16T05:11:53;10.00;99.90
13686;DHT22;6915;48.296;8.874;2023-05-16T05:14:22;9.90;99.90
13686;DHT22;6915;48.296;8.874;2023-05-16T05:16:50;9.90;99.90
13686;DHT22;6915;48.296;8.874;2023-05-16T05:19:19;9.90;99.90
13686;DHT22;6915;48.296;8.874;2023-05-16T05:21:47;9.90;99.90
13686;DHT22;6915;48.296;8.874;2023-05-16T05:24:18;9.90;99.90
13686;DHT22;6915;48.296;8.874;2023-05-16T05:26:46;9.90;99.90
13686;DHT22;6915;48.296;8.874;2023-05-16T05:29:15;9.90;99.90
13686;DHT22;6915;48.296;8.874;2023-05-16T05:31:43;9.90;99.90
13686;DHT22;6915;48.296;8.874;2023-05-16T05:34:12;9.80;99.90
13686;DHT22;6915;48.296;8.874;2023-05-16T05:36:40;9.90;99.90
13686;DHT22;6915;48.296;8.874;2023-05-16T05:39:10;9.90;99.90
13686;DHT22;6915;48.296;8.874;2023-05-16T05:41:40;9.80;99.90
13686;DHT22;6915;48.296;8.874;2023-05-16T05:44:09;9.80;99.90
13686;DHT22;6915;48.296;8.874;2023-05-16T05:46:38;9.80;99.90
13686;DHT22;6915;48.296;8.874;2023-05-16T05:49:07;10.00;99.90
13686;DHT22;6915;48.296;8.874;2023-05-16T05:51:36;9.90;99.90
13686;DHT22;6915;48.296;8.874;2023-05-16T05:54:04;9.90;99.90
13686;DHT22;6915;48.296;8.874;2023-05-16T05:56:33;9.90;99.90
13686;DHT22;6915;48.296;8.874;2023-05-16T05:59:03;9.90;99.90
13686;DHT22;6915;48.296;8.874;2023-05-16T06:01:32;9.80;99.90
13686;DHT22;6915;48.296;8.874;2023-05-16T06:04:00;9.80;99.90
13686;DHT22;6915;48.296;8.874;2023-05-16T06:06:29;9.90;99.90
13686;DHT22;6915;48.296;8.874;2023-05-16T06:08:58;9.90;99.90
13686;DHT22;6915;48.296;8.874;2023-05-16T06:11:27;9.90;99.90
13686;DHT22;6915;48.296;8.874;2023-05-16T06:13:56;9.90;99.90
13686;DHT22;6915;48.296;8.874;2023-05-16T06:16:27;9.90;99.90
13686;DHT22;6915;48.296;8.874;2023-05-16T06:18:57;9.90;99.90
13686;DHT22;6915;48.296;8.874;2023-05-16T06:21:26;9.90;99.90
13686;DHT22;6915;48.296;8.874;2023-05-16T06:23:54;9.90;99.90
13686;DHT22;6915;48.296;8.874;2023-05-16T06:26:23;9.90;99.90
13686;DHT22;6915;48.296;8.874;2023-05-16T06:28:52;10.00;99.90
13686;DHT22;6915;48.296;8.874;2023-05-16T06:31:20;10.00;99.90
13686;DHT22;6915;48.296;8.874;2023-05-16T06:33:50;10.10;99.90
13686;DHT22;6915;48.296;8.874;2023-05-16T06:36:19;10.00;99.90
13686;DHT22;6915;48.296;8.874;2023-05-16T06:38:48;10.10;99.90
13686;DHT22;6915;48.296;8.874;2023-05-16T06:41:17;10.20;99.90
13686;DHT22;6915;48.296;8.874;2023-05-16T06:43:45;10.10;99.90
13686;DHT22;6915;48.296;8.874;2023-05-16T06:46:14;10.20;99.90
13686;DHT22;6915;48.296;8.874;2023-05-16T06:48:42;10.20;99.90
13686;DHT22;6915;48.296;8.874;2023-05-16T06:51:12;10.20;99.90
13686;DHT22;6915;48.296;8.874;2023-05-16T06:53:42;10.20;99.90
13686;DHT22;6915;48.296;8.874;2023-05-16T06:56:10;10.10;99.90
13686;DHT22;6915;48.296;8.874;2023-05-16T06:58:39;10.30;99.90
13686;DHT22;6915;48.296;8.874;2023-05-16T07:01:08;10.10;99.90
13686;DHT22;6915;48.296;8.874;2023-05-16T07:03:36;10.00;99.90
13686;DHT22;6915;48.296;8.874;2023-05-16T07:06:06;10.00;99.90
13686;DHT22;6915;48.296;8.874;2023-05-16T07:08:36;10.00;99.90
13686;DHT22;6915;48.296;8.874;2023-05-16T07:11:05;10.00;99.90
13686;DHT22;6915;48.296;8.874;2023-05-16T07:13:33;10.10;99.90
13686;DHT22;6915;48.296;8.874;2023-05-16T07:16:05;10.10;99.90
13686;DHT22;6915;48.296;8.874;2023-05-16T07:18:34;10.00;99.90
13686;DHT22;6915;48.296;8.874;2023-05-16T07:21:03;10.10;99.90
13686;DHT22;6915;48.296;8.874;2023-05-16T07:23:32;10.00;99.90
13686;DHT22;6915;48.296;8.874;2023-05-16T07:26:02;10.00;99.90
13686;DHT22;6915;48.296;8.874;2023-05-16T07:28:30;10.00;99.90
13686;DHT22;6915;48.296;8.874;2023-05-16T07:31:24;9.90;99.90
13686;DHT22;6915;48.296;8.874;2023-05-16T07:33:53;9.90;99.90
13686;DHT22;6915;48.296;8.874;2023-05-16T07:36:22;9.90;99.90
13686;DHT22;6915;48.296;8.874;2023-05-16T07:38:50;9.80;99.90
13686;DHT22;6915;48.296;8.874;2023-05-16T07:41:21;9.90;99.90
13686;DHT22;6915;48.296;8.874;2023-05-16T07:43:51;9.80;99.90
13686;DHT22;6915;48.296;8.874;2023-05-16T07:46:20;9.90;99.90
13686;DHT22;6915;48.296;8.874;2023-05-16T07:48:49;9.90;99.90
13686;DHT22;6915;48.296;8.874;2023-05-16T07:51:18;9.80;99.90
13686;DHT22;6915;48.296;8.874;2023-05-16T07:53:47;9.80;99.90
13686;DHT22;6915;48.296;8.874;2023-05-16T07:56:16;9.90;99.90
13686;DHT22;6915;48.296;8.874;2023-05-16T07:58:46;9.80;99.90
13686;DHT22;6915;48.296;8.874;2023-05-16T08:01:16;9.90;99.90
13686;DHT22;6915;48.296;8.874;2023-05-16T08:03:45;9.90;99.90
13686;DHT22;6915;48.296;8.874;2023-05-16T08:06:14;9.80;99.90
13686;DHT22;6915;48.296;8.874;2023-05-16T08:08:43;9.80;99.90
13686;DHT22;6915;48.296;8.874;2023-05-16T08:11:11;9.80;99.90
13686;DHT22;6915;48.296;8.874;2023-05-16T08:13:42;9.90;99.90
13686;DHT22;6915;48.296;8.874;2023-05-16T08:16:13;9.80;99.90
13686;DHT22;6915;48.296;8.874;2023-05-16T08:18:41;9.80;99.90
13686;DHT22;6915;48.296;8.874;2023-05-16T08:21:10;9.70;99.90
13686;DHT22;6915;48.296;8.874;2023-05-16T08:23:40;9.70;99.90
13686;DHT22;6915;48.296;8.874;2023-05-16T08:26:09;9.70;99.90
13686;DHT22;6915;48.296;8.874;2023-05-16T08:28:39;9.70;99.90
13686;DHT22;6915;48.296;8.874;2023-05-16T08:31:09;9.60;99.90
13686;DHT22;6915;48.296;8.874;2023-05-16T08:33:39;9.60;99.90
13686;DHT22;6915;48.296;8.874;2023-05-16T08:36:10;9.60;99.90
13686;DHT22;6915;48.296;8.874;2023-05-16T08:38:39;9.60;99.90
13686;DHT22;6915;48.296;8.874;2023-05-16T08:41:08;9.50;99.90
13686;DHT22;6915;48.296;8.874;2023-05-16T08:43:36;9.50;99.90
13686;DHT22;6915;48.296;8.874;2023-05-16T08:46:08;9.60;99.90
13686;DHT22;6915;48.296;8.874;2023-05-16T08:48:37;9.50;99.90
13686;DHT22;6915;48.296;8.874;2023-05-16T08:51:09;9.50;99.90
13686;DHT22;6915;48.296;8.874;2023-05-16T08:53:43;9.60;99.90
13686;DHT22;6915;48.296;8.874;2023-05-16T08:56:13;9.50;99.90
13686;DHT22;6915;48.296;8.874;2023-05-16T08:58:44;9.50;99.90
13686;DHT22;6915;48.296;8.874;2023-05-16T09:01:13;9.50;99.90
13686;DHT22;6915;48.296;8.874;2023-05-16T09:03:59;9.50;99.90
13686;DHT22;6915;48.296;8.874;2023-05-16T09:06:28;9.60;99.90
13686;DHT22;6915;48.296;8.874;2023-05-16T09:08:57;9.60;99.90
13686;DHT22;6915;48.296;8.874;2023-05-16T09:11:26;9.60;99.90
13686;DHT22;6915;48.296;8.874;2023-05-16T09:13:56;9.60;99.90
13686;DHT22;6915;48.296;8.874;2023-05-16T09:21:38;9.60;99.90
13686;DHT22;6915;48.296;8.874;2023-05-16T09:24:09;9.60;99.90
13686;DHT22;6915;48.296;8.874;2023-05-16T09:26:40;9.60;99.90
13686;DHT22;6915;48.296;8.874;2023-05-16T09:29:13;9.60;99.90
13686;DHT22;6915;48.296;8.874;2023-05-16T09:31:43;9.60;99.90
13686;DHT22;6915;48.296;8.874;2023-05-16T09:42:02;9.70;99.90
13686;DHT22;6915;48.296;8.874;2023-05-16T09:44:32;9.70;99.90
13686;DHT22;6915;48.296;8.874;2023-05-16T09:47:01;9.70;99.90
13686;DHT22;6915;48.296;8.874;2023-05-16T09:49:35;9.80;99.90
13686;DHT22;6915;48.296;8.874;2023-05-16T09:59:50;9.70;99.90
13686;DHT22;6915;48.296;8.874;2023-05-16T10:02:20;9.70;99.90
13686;DHT22;6915;48.296;8.874;2023-05-16T10:04:48;9.80;99.90
13686;DHT22;6915;48.296;8.874;2023-05-16T10:07:18;9.90;99.90
13686;DHT22;6915;48.296;8.874;2023-05-16T10:09:49;9.70;99.90
13686;DHT22;6915;48.296;8.874;2023-05-16T10:12:19;9.70;99.90
13686;DHT22;6915;48.296;8.874;2023-05-16T10:14:52;9.70;99.90
13686;DHT22;6915;48.296;8.874;2023-05-16T10:17:21;9.70;99.90
13686;DHT22;6915;48.296;8.874;2023-05-16T10:19:51;9.70;99.90
13686;DHT22;6915;48.296;8.874;2023-05-16T10:22:24;9.60;99.90
13686;DHT22;6915;48.296;8.874;2023-05-16T10:25:06;9.60;99.90
13686;DHT22;6915;48.296;8.874;2023-05-16T10:27:39;9.60;99.90
13686;DHT22;6915;48.296;8.874;2023-05-16T10:35:20;9.60;99.90
13686;DHT22;6915;48.296;8.874;2023-05-16T10:37:51;9.60;99.90
13686;DHT22;6915;48.296;8.874;2023-05-16T10:40:21;9.60;99.90
13686;DHT22;6915;48.296;8.874;2023-05-16T10:42:56;9.60;99.90
13686;DHT22;6915;48.296;8.874;2023-05-16T10:45:26;9.70;99.90
13686;DHT22;6915;48.296;8.874;2023-05-16T10:47:56;9.70;99.90
13686;DHT22;6915;48.296;8.874;2023-05-16T10:50:38;9.80;99.90
13686;DHT22;6915;48.296;8.874;2023-05-16T10:53:17;9.90;99.90
13686;DHT22;6915;48.296;8.874;2023-05-16T10:56:04;10.00;99.90
13686;DHT22;6915;48.296;8.874;2023-05-16T11:09:05;10.80;99.90
13686;DHT22;6915;48.296;8.874;2023-05-16T11:11:38;10.70;99.90
13686;DHT22;6915;48.296;8.874;2023-05-16T11:14:08;10.60;99.90
13686;DHT22;6915;48.296;8.874;2023-05-16T11:16:37;10.60;99.90
13686;DHT22;6915;48.296;8.874;2023-05-16T11:26:54;10.50;99.90
13686;DHT22;6915;48.296;8.874;2023-05-16T11:29:23;10.40;99.90
13686;DHT22;6915;48.296;8.874;2023-05-16T11:31:53;10.30;99.90
13686;DHT22;6915;48.296;8.874;2023-05-16T11:34:22;10.30;99.90
13686;DHT22;6915;48.296;8.874;2023-05-16T11:36:50;10.30;99.90
13686;DHT22;6915;48.296;8.874;2023-05-16T11:39:19;10.30;99.90
13686;DHT22;6915;48.296;8.874;2023-05-16T11:41:47;10.30;99.90
13686;DHT22;6915;48.296;8.874;2023-05-16T11:44:17;10.10;99.90
13686;DHT22;6915;48.296;8.874;2023-05-16T11:46:46;10.10;99.90
13686;DHT22;6915;48.296;8.874;2023-05-16T11:49:16;10.00;99.90
13686;DHT22;6915;48.296;8.874;2023-05-16T11:51:47;10.00;99.90
13686;DHT22;6915;48.296;8.874;2023-05-16T11:54:19;9.90;99.90
13686;DHT22;6915;48.296;8.874;2023-05-16T11:56:49;9.90;99.90
13686;DHT22;6915;48.296;8.874;2023-05-16T11:59:20;9.90;99.90
13686;DHT22;6915;48.296;8.874;2023-05-16T12:01:49;9.90;99.90
13686;DHT22;6915;48.296;8.874;2023-05-16T12:04:18;9.80;99.90
13686;DHT22;6915;48.296;8.874;2023-05-16T12:06:57;9.90;99.90
13686;DHT22;6915;48.296;8.874;2023-05-16T12:09:28;9.80;99.90
13686;DHT22;6915;48.296;8.874;2023-05-16T12:11:57;9.50;99.90
13686;DHT22;6915;48.296;8.874;2023-05-16T12:14:28;9.50;99.90
13686;DHT22;6915;48.296;8.874;2023-05-16T12:16:57;9.50;99.90
13686;DHT22;6915;48.296;8.874;2023-05-16T12:19:26;9.60;99.90
13686;DHT22;6915;48.296;8.874;2023-05-16T12:21:55;9.60;99.90
13686;DHT22;6915;48.296;8.874;2023-05-16T12:24:30;9.60;99.90
13686;DHT22;6915;48.296;8.874;2023-05-16T12:26:59;9.60;99.90
13686;DHT22;6915;48.296;8.874;2023-05-16T12:29:29;9.60;99.90
13686;DHT22;6915;48.296;8.874;2023-05-16T12:31:58;9.60;99.90
13686;DHT22;6915;48.296;8.874;2023-05-16T12:34:30;9.60;99.90
13686;DHT22;6915;48.296;8.874;2023-05-16T12:37:00;9.50;99.90
13686;DHT22;6915;48.296;8.874;2023-05-16T12:39:37;9.60;99.90
13686;DHT22;6915;48.296;8.874;2023-05-16T12:42:08;9.60;99.90
13686;DHT22;6915;48.296;8.874;2023-05-16T12:44:41;9.60;99.90
13686;DHT22;6915;48.296;8.874;2023-05-16T12:47:12;9.60;99.90
13686;DHT22;6915;48.296;8.874;2023-05-16T12:49:45;9.60;99.90
13686;DHT22;6915;48.296;8.874;2023-05-16T12:52:19;9.70;99.90
13686;DHT22;6915;48.296;8.874;2023-05-16T12:54:48;9.50;99.90
13686;DHT22;6915;48.296;8.874;2023-05-16T12:57:17;9.60;99.90
13686;DHT22;6915;48.296;8.874;2023-05-16T12:59:48;9.70;99.90
13686;DHT22;6915;48.296;8.874;2023-05-16T13:02:16;9.70;99.90
13686;DHT22;6915;48.296;8.874;2023-05-16T13:04:45;9.70;99.90
13686;DHT22;6915;48.296;8.874;2023-05-16T13:07:13;9.80;99.90
13686;DHT22;6915;48.296;8.874;2023-05-16T13:09:43;9.80;99.90
13686;DHT22;6915;48.296;8.874;2023-05-16T13:12:12;9.70;99.90
13686;DHT22;6915;48.296;8.874;2023-05-16T13:14:41;9.70;99.90
13686;DHT22;6915;48.296;8.874;2023-05-16T13:17:13;9.70;99.90
13686;DHT22;6915;48.296;8.874;2023-05-16T13:19:41;9.60;99.90
13686;DHT22;6915;48.296;8.874;2023-05-16T13:22:10;9.60;99.90
13686;DHT22;6915;48.296;8.874;2023-05-16T13:24:40;9.40;99.90
13686;DHT22;6915;48.296;8.874;2023-05-16T13:27:09;9.40;99.90
13686;DHT22;6915;48.296;8.874;2023-05-16T13:29:37;9.30;99.90
13686;DHT22;6915;48.296;8.874;2023-05-16T13:32:07;9.20;99.90
13686;DHT22;6915;48.296;8.874;2023-05-16T13:34:37;9.20;99.90
13686;DHT22;6915;48.296;8.874;2023-05-16T13:37:06;9.20;99.90
13686;DHT22;6915;48.296;8.874;2023-05-16T13:39:34;9.10;99.90
13686;DHT22;6915;48.296;8.874;2023-05-16T13:42:03;9.10;99.90
13686;DHT22;6915;48.296;8.874;2023-05-16T13:44:30;9.10;99.90
13686;DHT22;6915;48.296;8.874;2023-05-16T13:46:59;9.20;99.90
13686;DHT22;6915;48.296;8.874;2023-05-16T13:49:32;9.00;99.90
13686;DHT22;6915;48.296;8.874;2023-05-16T13:52:09;9.10;99.90
13686;DHT22;6915;48.296;8.874;2023-05-16T13:54:37;8.80;99.90
13686;DHT22;6915;48.296;8.874;2023-05-16T13:57:07;8.80;99.90
13686;DHT22;6915;48.296;8.874;2023-05-16T13:59:36;8.90;99.90
13686;DHT22;6915;48.296;8.874;2023-05-16T14:02:05;8.80;99.90
13686;DHT22;6915;48.296;8.874;2023-05-16T14:04:33;8.70;99.90
13686;DHT22;6915;48.296;8.874;2023-05-16T14:07:02;8.70;99.90
13686;DHT22;6915;48.296;8.874;2023-05-16T14:09:33;8.70;99.90
13686;DHT22;6915;48.296;8.874;2023-05-16T14:12:06;8.70;99.90
13686;DHT22;6915;48.296;8.874;2023-05-16T14:14:35;8.60;99.90
13686;DHT22;6915;48.296;8.874;2023-05-16T14:17:09;8.60;99.90
13686;DHT22;6915;48.296;8.874;2023-05-16T14:19:37;8.60;99.90
13686;DHT22;6915;48.296;8.874;2023-05-16T14:22:06;8.60;99.90
13686;DHT22;6915;48.296;8.874;2023-05-16T14:24:37;8.50;99.90
13686;DHT22;6915;48.296;8.874;2023-05-16T14:27:06;8.50;99.90
13686;DHT22;6915;48.296;8.874;2023-05-16T14:29:35;8.60;99.90
13686;DHT22;6915;48.296;8.874;2023-05-16T14:32:04;8.50;99.90
13686;DHT22;6915;48.296;8.874;2023-05-16T14:34:33;8.50;99.90
13686;DHT22;6915;48.296;8.874;2023-05-16T14:37:02;8.60;99.90
13686;DHT22;6915;48.296;8.874;2023-05-16T14:39:30;8.60;99.90
13686;DHT22;6915;48.296;8.874;2023-05-16T14:42:01;8.70;99.90
13686;DHT22;6915;48.296;8.874;2023-05-16T14:44:29;8.60;99.90
13686;DHT22;6915;48.296;8.874;2023-05-16T14:46:58;8.60;99.90
13686;DHT22;6915;48.296;8.874;2023-05-16T14:49:27;8.70;99.90
13686;DHT22;6915;48.296;8.874;2023-05-16T14:51:55;8.70;99.90
13686;DHT22;6915;48.296;8.874;2023-05-16T14:54:24;8.70;99.90
13686;DHT22;6915;48.296;8.874;2023-05-16T14:56:53;8.70;99.90
13686;DHT22;6915;48.296;8.874;2023-05-16T14:59:24;8.80;99.90
13686;DHT22;6915;48.296;8.874;2023-05-16T15:01:54;8.70;99.90
13686;DHT22;6915;48.296;8.874;2023-05-16T15:04:22;8.80;99.90
13686;DHT22;6915;48.296;8.874;2023-05-16T15:06:51;8.80;99.90
13686;DHT22;6915;48.296;8.874;2023-05-16T15:09:20;8.80;99.90
13686;DHT22;6915;48.296;8.874;2023-05-16T15:11:48;8.80;99.90
13686;DHT22;6915;48.296;8.874;2023-05-16T15:14:17;8.70;99.90
13686;DHT22;6915;48.296;8.874;2023-05-16T15:16:47;8.70;99.90
13686;DHT22;6915;48.296;8.874;2023-05-16T15:19:16;8.70;99.90
13686;DHT22;6915;48.296;8.874;2023-05-16T15:26:55;8.70;99.90
13686;DHT22;6915;48.296;8.874;2023-05-16T15:29:24;8.70;99.90
13686;DHT22;6915;48.296;8.874;2023-05-16T15:31:54;8.70;99.90
13686;DHT22;6915;48.296;8.874;2023-05-16T15:34:23;8.70;99.90
13686;DHT22;6915;48.296;8.874;2023-05-16T15:36:53;8.70;99.90
13686;DHT22;6915;48.296;8.874;2023-05-16T15:39:23;8.70;99.90
13686;DHT22;6915;48.296;8.874;2023-05-16T15:41:53;8.70;99.90
13686;DHT22;6915;48.296;8.874;2023-05-16T15:49:40;8.80;99.90
13686;DHT22;6915;48.296;8.874;2023-05-16T15:52:09;8.90;99.90
13686;DHT22;6915;48.296;8.874;2023-05-16T15:57:12;8.90;99.90
13686;DHT22;6915;48.296;8.874;2023-05-16T16:00:02;9.00;99.90
13686;DHT22;6915;48.296;8.874;2023-05-16T16:02:31;9.00;99.90
13686;DHT22;6915;48.296;8.874;2023-05-16T16:05:02;9.00;99.90
13686;DHT22;6915;48.296;8.874;2023-05-16T16:07:31;9.00;99.90
13686;DHT22;6915;48.296;8.874;2023-05-16T16:10:02;8.90;99.90
13686;DHT22;6915;48.296;8.874;2023-05-16T16:12:32;9.00;99.90
13686;DHT22;6915;48.296;8.874;2023-05-16T16:15:05;9.00;99.90
13686;DHT22;6915;48.296;8.874;2023-05-16T16:17:34;9.00;99.90
13686;DHT22;6915;48.296;8.874;2023-05-16T16:20:05;9.00;99.90
13686;DHT22;6915;48.296;8.874;2023-05-16T16:22:34;9.00;99.90
13686;DHT22;6915;48.296;8.874;2023-05-16T16:25:03;8.90;99.90
13686;DHT22;6915;48.296;8.874;2023-05-16T16:27:31;8.90;99.90
13686;DHT22;6915;48.296;8.874;2023-05-16T16:30:00;8.90;99.90
13686;DHT22;6915;48.296;8.874;2023-05-16T16:32:28;8.80;99.90
13686;DHT22;6915;48.296;8.874;2023-05-16T16:34:57;8.90;99.90
13686;DHT22;6915;48.296;8.874;2023-05-16T16:37:29;9.00;99.90
13686;DHT22;6915;48.296;8.874;2023-05-16T16:39:58;9.10;99.90
13686;DHT22;6915;48.296;8.874;2023-05-16T16:42:27;9.10;99.90
13686;DHT22;6915;48.296;8.874;2023-05-16T16:44:57;9.10;99.90
13686;DHT22;6915;48.296;8.874;2023-05-16T16:47:26;9.20;99.90
13686;DHT22;6915;48.296;8.874;2023-05-16T16:49:55;9.20;99.90
13686;DHT22;6915;48.296;8.874;2023-05-16T16:52:23;9.20;99.90
13686;DHT22;6915;48.296;8.874;2023-05-16T16:54:54;9.20;99.90
13686;DHT22;6915;48.296;8.874;2023-05-16T16:57:22;9.20;99.90
13686;DHT22;6915;48.296;8.874;2023-05-16T16:59:51;9.20;99.90
13686;DHT22;6915;48.296;8.874;2023-05-16T17:02:20;9.20;99.90
13686;DHT22;6915;48.296;8.874;2023-05-16T17:04:49;9.10;99.90
13686;DHT22;6915;48.296;8.874;2023-05-16T17:07:17;9.10;99.90
13686;DHT22;6915;48.296;8.874;2023-05-16T17:09:46;9.20;99.90
13686;DHT22;6915;48.296;8.874;2023-05-16T17:12:16;9.30;99.90
13686;DHT22;6915;48.296;8.874;2023-05-16T17:25:09;9.40;99.90
13686;DHT22;6915;48.296;8.874;2023-05-16T17:27:39;9.40;99.90
13686;DHT22;6915;48.296;8.874;2023-05-16T17:30:09;9.50;99.90
13686;DHT22;6915;48.296;8.874;2023-05-16T17:32:39;9.40;99.90
13686;DHT22;6915;48.296;8.874;2023-05-16T21:17:36;7.20;99.90
13686;DHT22;6915;48.296;8.874;2023-05-16T21:20:07;7.10;99.90
13686;DHT22;6915;48.296;8.874;2023-05-16T21:22:35;7.00;99.90
13686;DHT22;6915;48.296;8.874;2023-05-16T21:25:07;6.80;99.90